sensor_id;sensor_type;location;lat;lon;timestamp;temperature;humidity
72355;SHT30;60314;55.040;73.076;2023-05-07T00:01:20;11.45;45.00
72355;SHT30;60314;55.040;73.076;2023-05-07T00:06:42;11.72;38.68
72355;SHT30;60314;55.040;73.076;2023-05-07T00:12:02;11.93;41.69
72355;SHT30;60314;55.040;73.076;2023-05-07T00:17:21;12.00;38.65
72355;SHT30;60314;55.040;73.076;2023-05-07T00:22:42;12.13;39.02
72355;SHT30;60314;55.040;73.076;2023-05-07T00:28:02;12.27;42.04
72355;SHT30;60314;55.040;73.076;2023-05-07T00:33:23;12.49;41.01
72355;SHT30;60314;55.040;73.076;2023-05-07T00:38:43;15.83;32.38
72355;SHT30;60314;55.040;73.076;2023-05-07T00:43:44;18.38;30.89
72355;SHT30;60314;55.040;73.076;2023-05-07T00:49:04;20.72;25.36
72355;SHT30;60314;55.040;73.076;2023-05-07T00:54:25;22.60;25.55
72355;SHT30;60314;55.040;73.076;2023-05-07T00:59:45;24.08;22.46
72355;SHT30;60314;55.040;73.076;2023-05-07T01:05:11;25.14;22.26
72355;SHT30;60314;55.040;73.076;2023-05-07T01:10:32;26.41;20.07
72355;SHT30;60314;55.040;73.076;2023-05-07T01:15:52;27.19;19.95
72355;SHT30;60314;55.040;73.076;2023-05-07T01:21:15;28.73;18.93
72355;SHT30;60314;55.040;73.076;2023-05-07T01:26:36;30.16;17.62
72355;SHT30;60314;55.040;73.076;2023-05-07T01:31:59;31.21;16.84
72355;SHT30;60314;55.040;73.076;2023-05-07T01:37:21;31.80;16.93
72355;SHT30;60314;55.040;73.076;2023-05-07T01:42:43;31.24;17.56
72355;SHT30;60314;55.040;73.076;2023-05-07T01:47:45;32.82;16.57
72355;SHT30;60314;55.040;73.076;2023-05-07T01:52:49;33.77;16.04
72355;SHT30;60314;55.040;73.076;2023-05-07T01:58:09;34.87;15.22
72355;SHT30;60314;55.040;73.076;2023-05-07T02:03:30;35.66;14.86
72355;SHT30;60314;55.040;73.076;2023-05-07T02:08:59;36.24;14.50
72355;SHT30;60314;55.040;73.076;2023-05-07T02:14:19;37.30;13.81
72355;SHT30;60314;55.040;73.076;2023-05-07T02:19:40;37.46;13.79
72355;SHT30;60314;55.040;73.076;2023-05-07T02:25:00;38.65;13.12
72355;SHT30;60314;55.040;73.076;2023-05-07T02:30:20;38.98;12.97
72355;SHT30;60314;55.040;73.076;2023-05-07T02:35:43;39.82;12.59
72355;SHT30;60314;55.040;73.076;2023-05-07T02:41:07;40.49;12.30
72355;SHT30;60314;55.040;73.076;2023-05-07T02:46:27;41.26;12.04
72355;SHT30;60314;55.040;73.076;2023-05-07T02:51:54;41.79;11.73
72355;SHT30;60314;55.040;73.076;2023-05-07T02:56:59;42.30;11.71
72355;SHT30;60314;55.040;73.076;2023-05-07T03:02:02;42.64;11.53
72355;SHT30;60314;55.040;73.076;2023-05-07T03:07:22;43.32;11.26
72355;SHT30;60314;55.040;73.076;2023-05-07T03:12:45;44.44;10.81
72355;SHT30;60314;55.040;73.076;2023-05-07T03:18:09;45.26;10.50
72355;SHT30;60314;55.040;73.076;2023-05-07T03:23:29;45.62;10.62
72355;SHT30;60314;55.040;73.076;2023-05-07T03:28:50;46.53;10.22
72355;SHT30;60314;55.040;73.076;2023-05-07T03:34:10;46.81;10.05
72355;SHT30;60314;55.040;73.076;2023-05-07T03:39:30;47.56;9.94
72355;SHT30;60314;55.040;73.076;2023-05-07T03:44:53;47.72;8.98
72355;SHT30;60314;55.040;73.076;2023-05-07T03:50:14;48.47;9.55
72355;SHT30;60314;55.040;73.076;2023-05-07T03:55:39;49.19;9.21
72355;SHT30;60314;55.040;73.076;2023-05-07T04:00:59;49.76;8.82
72355;SHT30;60314;55.040;73.076;2023-05-07T04:06:03;50.15;8.28
72355;SHT30;60314;55.040;73.076;2023-05-07T04:11:26;50.72;7.82
72355;SHT30;60314;55.040;73.076;2023-05-07T04:16:46;50.48;7.66
72355;SHT30;60314;55.040;73.076;2023-05-07T04:22:09;49.83;7.91
72355;SHT30;60314;55.040;73.076;2023-05-07T04:27:30;51.24;7.70
72355;SHT30;60314;55.040;73.076;2023-05-07T04:32:50;51.49;7.39
72355;SHT30;60314;55.040;73.076;2023-05-07T04:38:10;51.28;7.71
72355;SHT30;60314;55.040;73.076;2023-05-07T04:43:31;52.19;7.01
72355;SHT30;60314;55.040;73.076;2023-05-07T04:48:51;52.12;7.11
72355;SHT30;60314;55.040;73.076;2023-05-07T04:54:11;51.73;7.07
72355;SHT30;60314;55.040;73.076;2023-05-07T04:59:32;50.53;7.35
72355;SHT30;60314;55.040;73.076;2023-05-07T05:04:52;51.04;7.29
72355;SHT30;60314;55.040;73.076;2023-05-07T05:09:58;52.60;7.10
72355;SHT30;60314;55.040;73.076;2023-05-07T05:15:19;53.55;6.57
72355;SHT30;60314;55.040;73.076;2023-05-07T05:20:39;53.63;6.38
72355;SHT30;60314;55.040;73.076;2023-05-07T05:26:00;54.30;6.38
72355;SHT30;60314;55.040;73.076;2023-05-07T05:31:23;54.53;6.38
72355;SHT30;60314;55.040;73.076;2023-05-07T05:36:45;54.38;6.15
72355;SHT30;60314;55.040;73.076;2023-05-07T05:42:07;54.00;6.24
72355;SHT30;60314;55.040;73.076;2023-05-07T05:47:29;54.07;6.35
72355;SHT30;60314;55.040;73.076;2023-05-07T05:52:50;54.43;6.22
72355;SHT30;60314;55.040;73.076;2023-05-07T05:58:11;53.97;6.57
72355;SHT30;60314;55.040;73.076;2023-05-07T06:03:36;54.99;6.19
72355;SHT30;60314;55.040;73.076;2023-05-07T06:09:01;54.88;6.35
72355;SHT30;60314;55.040;73.076;2023-05-07T06:14:10;54.50;6.38
72355;SHT30;60314;55.040;73.076;2023-05-07T06:19:11;55.21;6.06
72355;SHT30;60314;55.040;73.076;2023-05-07T06:24:32;55.39;6.08
72355;SHT30;60314;55.040;73.076;2023-05-07T06:29:52;54.97;6.19
72355;SHT30;60314;55.040;73.076;2023-05-07T06:35:12;54.67;6.20
72355;SHT30;60314;55.040;73.076;2023-05-07T06:40:34;54.67;6.15
72355;SHT30;60314;55.040;73.076;2023-05-07T06:45:54;55.60;6.24
72355;SHT30;60314;55.040;73.076;2023-05-07T06:51:15;56.12;5.93
72355;SHT30;60314;55.040;73.076;2023-05-07T06:56:35;54.79;6.08
72355;SHT30;60314;55.040;73.076;2023-05-07T07:01:56;55.19;6.02
72355;SHT30;60314;55.040;73.076;2023-05-07T07:07:25;55.29;6.19
72355;SHT30;60314;55.040;73.076;2023-05-07T07:12:47;55.32;6.26
72355;SHT30;60314;55.040;73.076;2023-05-07T07:18:07;55.53;6.01
72355;SHT30;60314;55.040;73.076;2023-05-07T07:23:09;55.15;6.17
72355;SHT30;60314;55.040;73.076;2023-05-07T07:28:11;56.14;6.00
72355;SHT30;60314;55.040;73.076;2023-05-07T07:33:13;55.68;6.08
72355;SHT30;60314;55.040;73.076;2023-05-07T07:38:16;55.08;6.11
72355;SHT30;60314;55.040;73.076;2023-05-07T07:43:36;55.29;6.01
72355;SHT30;60314;55.040;73.076;2023-05-07T07:48:57;55.29;6.22
72355;SHT30;60314;55.040;73.076;2023-05-07T07:54:19;53.31;6.34
72355;SHT30;60314;55.040;73.076;2023-05-07T07:59:39;50.84;6.48
72355;SHT30;60314;55.040;73.076;2023-05-07T08:05:01;48.91;6.85
72355;SHT30;60314;55.040;73.076;2023-05-07T08:10:22;50.07;6.65
72355;SHT30;60314;55.040;73.076;2023-05-07T08:15:47;49.70;6.75
72355;SHT30;60314;55.040;73.076;2023-05-07T08:21:08;48.95;6.78
72355;SHT30;60314;55.040;73.076;2023-05-07T08:26:29;48.21;6.86
72355;SHT30;60314;55.040;73.076;2023-05-07T08:31:49;46.24;7.15
72355;SHT30;60314;55.040;73.076;2023-05-07T08:37:09;40.48;8.42
72355;SHT30;60314;55.040;73.076;2023-05-07T08:42:12;35.84;9.54
72355;SHT30;60314;55.040;73.076;2023-05-07T08:47:40;32.77;10.69
72355;SHT30;60314;55.040;73.076;2023-05-07T08:53:04;31.46;10.97
72355;SHT30;60314;55.040;73.076;2023-05-07T08:58:24;29.79;11.74
72355;SHT30;60314;55.040;73.076;2023-05-07T09:03:46;29.04;12.17
72355;SHT30;60314;55.040;73.076;2023-05-07T09:09:08;28.80;12.51
72355;SHT30;60314;55.040;73.076;2023-05-07T09:14:28;28.70;12.67
72355;SHT30;60314;55.040;73.076;2023-05-07T09:19:48;28.72;12.80
72355;SHT30;60314;55.040;73.076;2023-05-07T09:25:10;28.56;12.70
72355;SHT30;60314;55.040;73.076;2023-05-07T09:30:32;28.48;12.62
72355;SHT30;60314;55.040;73.076;2023-05-07T09:35:54;28.45;12.96
72355;SHT30;60314;55.040;73.076;2023-05-07T09:41:15;28.35;12.67
72355;SHT30;60314;55.040;73.076;2023-05-07T09:46:42;28.29;12.57
72355;SHT30;60314;55.040;73.076;2023-05-07T09:52:11;28.19;12.69
72355;SHT30;60314;55.040;73.076;2023-05-07T09:57:38;28.15;12.95
72355;SHT30;60314;55.040;73.076;2023-05-07T10:03:03;28.14;12.58
72355;SHT30;60314;55.040;73.076;2023-05-07T10:08:37;28.08;12.93
72355;SHT30;60314;55.040;73.076;2023-05-07T10:14:04;27.90;13.22
72355;SHT30;60314;55.040;73.076;2023-05-07T10:19:29;28.02;13.03
72355;SHT30;60314;55.040;73.076;2023-05-07T10:24:52;28.05;13.29
72355;SHT30;60314;55.040;73.076;2023-05-07T10:30:25;28.04;13.18
72355;SHT30;60314;55.040;73.076;2023-05-07T10:35:47;28.07;13.71
72355;SHT30;60314;55.040;73.076;2023-05-07T10:41:09;27.95;13.49
72355;SHT30;60314;55.040;73.076;2023-05-07T10:46:33;27.84;13.75
72355;SHT30;60314;55.040;73.076;2023-05-07T10:57:35;27.68;14.06
72355;SHT30;60314;55.040;73.076;2023-05-07T11:08:53;27.61;14.34
72355;SHT30;60314;55.040;73.076;2023-05-07T11:20:17;27.74;14.78
72355;SHT30;60314;55.040;73.076;2023-05-07T11:25:48;27.71;15.13
72355;SHT30;60314;55.040;73.076;2023-05-07T11:31:13;27.73;15.41
72355;SHT30;60314;55.040;73.076;2023-05-07T11:36:35;27.67;15.28
72355;SHT30;60314;55.040;73.076;2023-05-07T11:42:02;27.76;15.86
72355;SHT30;60314;55.040;73.076;2023-05-07T11:47:22;27.73;16.05
72355;SHT30;60314;55.040;73.076;2023-05-07T11:52:24;27.71;16.02
72355;SHT30;60314;55.040;73.076;2023-05-07T11:57:26;27.51;16.27
72355;SHT30;60314;55.040;73.076;2023-05-07T12:02:46;27.47;16.24
72355;SHT30;60314;55.040;73.076;2023-05-07T12:08:07;27.57;16.16
72355;SHT30;60314;55.040;73.076;2023-05-07T12:13:27;27.63;16.09
72355;SHT30;60314;55.040;73.076;2023-05-07T12:18:47;27.53;16.17
72355;SHT30;60314;55.040;73.076;2023-05-07T12:24:08;27.54;15.85
72355;SHT30;60314;55.040;73.076;2023-05-07T12:29:28;27.50;16.09
72355;SHT30;60314;55.040;73.076;2023-05-07T12:34:51;27.46;16.25
72355;SHT30;60314;55.040;73.076;2023-05-07T12:40:13;27.36;16.42
72355;SHT30;60314;55.040;73.076;2023-05-07T12:45:38;27.12;16.87
72355;SHT30;60314;55.040;73.076;2023-05-07T12:51:01;26.98;17.11
72355;SHT30;60314;55.040;73.076;2023-05-07T12:56:21;26.84;17.42
72355;SHT30;60314;55.040;73.076;2023-05-07T13:01:29;26.99;17.41
72355;SHT30;60314;55.040;73.076;2023-05-07T13:06:49;26.91;17.63
72355;SHT30;60314;55.040;73.076;2023-05-07T13:12:09;26.95;17.61
72355;SHT30;60314;55.040;73.076;2023-05-07T13:17:29;26.81;17.98
72355;SHT30;60314;55.040;73.076;2023-05-07T13:22:50;26.79;18.22
72355;SHT30;60314;55.040;73.076;2023-05-07T13:28:10;26.69;17.86
72355;SHT30;60314;55.040;73.076;2023-05-07T13:33:30;26.51;18.29
72355;SHT30;60314;55.040;73.076;2023-05-07T13:38:50;26.45;18.75
72355;SHT30;60314;55.040;73.076;2023-05-07T13:44:10;26.28;19.02
72355;SHT30;60314;55.040;73.076;2023-05-07T13:49:31;26.23;18.99
72355;SHT30;60314;55.040;73.076;2023-05-07T13:54:50;26.01;19.36
72355;SHT30;60314;55.040;73.076;2023-05-07T14:00:12;25.77;19.59
72355;SHT30;60314;55.040;73.076;2023-05-07T14:05:17;25.69;19.56
72355;SHT30;60314;55.040;73.076;2023-05-07T14:10:37;25.45;19.72
72355;SHT30;60314;55.040;73.076;2023-05-07T14:15:57;25.34;19.89
72355;SHT30;60314;55.040;73.076;2023-05-07T14:21:17;24.96;20.16
72355;SHT30;60314;55.040;73.076;2023-05-07T14:26:37;24.52;20.51
72355;SHT30;60314;55.040;73.076;2023-05-07T14:31:57;24.36;20.74
72355;SHT30;60314;55.040;73.076;2023-05-07T14:37:17;24.47;33.36
72355;SHT30;60314;55.040;73.076;2023-05-07T14:42:39;24.13;30.20
72355;SHT30;60314;55.040;73.076;2023-05-07T14:47:59;23.88;30.73
72355;SHT30;60314;55.040;73.076;2023-05-07T14:53:19;23.65;22.33
72355;SHT30;60314;55.040;73.076;2023-05-07T14:58:39;23.44;22.16
72355;SHT30;60314;55.040;73.076;2023-05-07T15:03:59;23.03;22.72
72355;SHT30;60314;55.040;73.076;2023-05-07T15:09:00;23.24;28.29
72355;SHT30;60314;55.040;73.076;2023-05-07T15:14:21;23.07;30.98
72355;SHT30;60314;55.040;73.076;2023-05-07T15:19:41;23.07;25.74
72355;SHT30;60314;55.040;73.076;2023-05-07T15:25:02;22.86;22.70
72355;SHT30;60314;55.040;73.076;2023-05-07T15:30:23;22.76;23.46
72355;SHT30;60314;55.040;73.076;2023-05-07T15:35:44;22.59;26.71
72355;SHT30;60314;55.040;73.076;2023-05-07T15:41:04;22.62;25.60
72355;SHT30;60314;55.040;73.076;2023-05-07T15:46:25;22.59;23.35
72355;SHT30;60314;55.040;73.076;2023-05-07T15:51:45;22.83;22.69
72355;SHT30;60314;55.040;73.076;2023-05-07T15:57:05;22.86;25.17
72355;SHT30;60314;55.040;73.076;2023-05-07T16:02:25;22.86;22.96
72355;SHT30;60314;55.040;73.076;2023-05-07T16:07:45;22.63;24.13
72355;SHT30;60314;55.040;73.076;2023-05-07T16:12:47;22.67;24.21
72355;SHT30;60314;55.040;73.076;2023-05-07T16:18:07;22.84;24.98
72355;SHT30;60314;55.040;73.076;2023-05-07T16:23:27;22.57;21.63
72355;SHT30;60314;55.040;73.076;2023-05-07T16:28:47;22.26;22.73
72355;SHT30;60314;55.040;73.076;2023-05-07T16:34:08;22.12;22.58
72355;SHT30;60314;55.040;73.076;2023-05-07T16:39:28;21.95;22.90
72355;SHT30;60314;55.040;73.076;2023-05-07T16:44:48;21.87;26.49
72355;SHT30;60314;55.040;73.076;2023-05-07T16:50:08;21.90;22.72
72355;SHT30;60314;55.040;73.076;2023-05-07T16:55:28;22.06;21.91
72355;SHT30;60314;55.040;73.076;2023-05-07T17:00:53;21.95;22.48
72355;SHT30;60314;55.040;73.076;2023-05-07T17:06:14;21.88;23.12
72355;SHT30;60314;55.040;73.076;2023-05-07T17:11:34;21.64;24.45
72355;SHT30;60314;55.040;73.076;2023-05-07T17:16:36;21.34;23.20
72355;SHT30;60314;55.040;73.076;2023-05-07T17:21:37;21.07;23.69
72355;SHT30;60314;55.040;73.076;2023-05-07T17:26:57;21.16;23.65
72355;SHT30;60314;55.040;73.076;2023-05-07T17:32:16;21.10;23.58
72355;SHT30;60314;55.040;73.076;2023-05-07T17:37:36;21.04;23.76
72355;SHT30;60314;55.040;73.076;2023-05-07T17:42:56;20.93;23.60
72355;SHT30;60314;55.040;73.076;2023-05-07T17:48:16;20.58;23.97
72355;SHT30;60314;55.040;73.076;2023-05-07T17:53:37;20.67;24.12
72355;SHT30;60314;55.040;73.076;2023-05-07T17:58:57;20.34;24.87
72355;SHT30;60314;55.040;73.076;2023-05-07T18:04:17;20.17;24.85
72355;SHT30;60314;55.040;73.076;2023-05-07T18:09:39;20.13;25.13
72355;SHT30;60314;55.040;73.076;2023-05-07T18:14:59;19.96;25.56
72355;SHT30;60314;55.040;73.076;2023-05-07T18:20:19;19.84;25.68
72355;SHT30;60314;55.040;73.076;2023-05-07T18:25:21;19.63;26.04
72355;SHT30;60314;55.040;73.076;2023-05-07T18:30:40;19.59;26.06
72355;SHT30;60314;55.040;73.076;2023-05-07T18:36:00;19.52;26.18
72355;SHT30;60314;55.040;73.076;2023-05-07T18:41:20;19.32;26.36
72355;SHT30;60314;55.040;73.076;2023-05-07T18:46:40;19.20;26.53
72355;SHT30;60314;55.040;73.076;2023-05-07T18:52:02;19.07;26.70
72355;SHT30;60314;55.040;73.076;2023-05-07T18:57:21;18.98;26.90
72355;SHT30;60314;55.040;73.076;2023-05-07T19:02:42;18.71;27.43
72355;SHT30;60314;55.040;73.076;2023-05-07T19:08:01;18.38;27.98
72355;SHT30;60314;55.040;73.076;2023-05-07T19:13:21;18.25;28.28
72355;SHT30;60314;55.040;73.076;2023-05-07T19:18:46;18.22;28.35
72355;SHT30;60314;55.040;73.076;2023-05-07T19:24:07;18.18;28.37
72355;SHT30;60314;55.040;73.076;2023-05-07T19:29:08;18.12;28.54
72355;SHT30;60314;55.040;73.076;2023-05-07T19:34:28;17.97;28.84
72355;SHT30;60314;55.040;73.076;2023-05-07T19:39:51;17.79;29.27
72355;SHT30;60314;55.040;73.076;2023-05-07T19:45:14;17.72;29.58
72355;SHT30;60314;55.040;73.076;2023-05-07T19:50:34;17.71;29.61
72355;SHT30;60314;55.040;73.076;2023-05-07T19:56:02;17.66;29.78
72355;SHT30;60314;55.040;73.076;2023-05-07T20:01:22;17.58;30.11
72355;SHT30;60314;55.040;73.076;2023-05-07T20:06:44;17.52;30.47
72355;SHT30;60314;55.040;73.076;2023-05-07T20:12:04;17.45;30.69
72355;SHT30;60314;55.040;73.076;2023-05-07T20:17:24;17.30;31.30
72355;SHT30;60314;55.040;73.076;2023-05-07T20:22:44;17.18;31.62
72355;SHT30;60314;55.040;73.076;2023-05-07T20:28:03;16.97;32.01
72355;SHT30;60314;55.040;73.076;2023-05-07T20:33:05;17.04;31.77
72355;SHT30;60314;55.040;73.076;2023-05-07T20:38:07;17.11;31.47
72355;SHT30;60314;55.040;73.076;2023-05-07T20:43:09;17.18;31.18
72355;SHT30;60314;55.040;73.076;2023-05-07T20:48:29;17.11;31.55
72355;SHT30;60314;55.040;73.076;2023-05-07T20:53:49;16.87;32.41
72355;SHT30;60314;55.040;73.076;2023-05-07T20:59:09;16.62;33.07
72355;SHT30;60314;55.040;73.076;2023-05-07T21:04:29;16.41;34.11
72355;SHT30;60314;55.040;73.076;2023-05-07T21:09:50;16.11;34.10
72355;SHT30;60314;55.040;73.076;2023-05-07T21:15:10;16.01;35.02
72355;SHT30;60314;55.040;73.076;2023-05-07T21:20:30;15.68;36.60
72355;SHT30;60314;55.040;73.076;2023-05-07T21:25:50;15.58;36.57
72355;SHT30;60314;55.040;73.076;2023-05-07T21:31:10;15.40;37.07
72355;SHT30;60314;55.040;73.076;2023-05-07T21:36:31;15.27;37.95
72355;SHT30;60314;55.040;73.076;2023-05-07T21:41:51;15.06;38.27
72355;SHT30;60314;55.040;73.076;2023-05-07T21:46:52;14.93;37.92
72355;SHT30;60314;55.040;73.076;2023-05-07T21:52:15;14.86;39.43
72355;SHT30;60314;55.040;73.076;2023-05-07T21:57:35;14.73;39.98
72355;SHT30;60314;55.040;73.076;2023-05-07T22:02:56;14.54;38.94
72355;SHT30;60314;55.040;73.076;2023-05-07T22:08:16;14.49;38.87
72355;SHT30;60314;55.040;73.076;2023-05-07T22:13:36;14.51;39.30
72355;SHT30;60314;55.040;73.076;2023-05-07T22:18:56;14.44;38.83
72355;SHT30;60314;55.040;73.076;2023-05-07T22:24:16;14.30;39.98
72355;SHT30;60314;55.040;73.076;2023-05-07T22:29:37;14.18;40.57
72355;SHT30;60314;55.040;73.076;2023-05-07T22:34:57;14.06;40.79
72355;SHT30;60314;55.040;73.076;2023-05-07T22:40:17;14.01;40.36
72355;SHT30;60314;55.040;73.076;2023-05-07T22:45:37;14.01;40.93
72355;SHT30;60314;55.040;73.076;2023-05-07T22:50:39;13.99;40.25
72355;SHT30;60314;55.040;73.076;2023-05-07T22:55:41;13.89;40.61
72355;SHT30;60314;55.040;73.076;2023-05-07T23:01:01;13.79;41.60
72355;SHT30;60314;55.040;73.076;2023-05-07T23:06:21;13.63;41.06
72355;SHT30;60314;55.040;73.076;2023-05-07T23:11:40;13.62;42.22
72355;SHT30;60314;55.040;73.076;2023-05-07T23:17:02;13.62;41.56
72355;SHT30;60314;55.040;73.076;2023-05-07T23:22:21;13.49;42.34
72355;SHT30;60314;55.040;73.076;2023-05-07T23:27:41;13.50;41.99
72355;SHT30;60314;55.040;73.076;2023-05-07T23:33:01;13.50;42.49
72355;SHT30;60314;55.040;73.076;2023-05-07T23:38:21;13.66;41.58
72355;SHT30;60314;55.040;73.076;2023-05-07T23:43:41;13.83;41.08
72355;SHT30;60314;55.040;73.076;2023-05-07T23:49:01;13.84;42.01
72355;SHT30;60314;55.040;73.076;2023-05-07T23:54:21;14.01;40.55
72355;SHT30;60314;55.040;73.076;2023-05-07T23:59:23;14.03;40.61
